Time,TemperatureF,DewpointF,PressureIn,WindDirection,WindDirectionDegrees,WindSpeedMPH,WindSpeedGustMPH,Humidity,HourlyPrecipIn,Conditions,Clouds,dailyrainin,SoftwareType,DateUTC
2014-09-17 00:22:00,77.0,67.0,-100.00,SSE,159,1.0,2.0,72,-99.99,,,-99.99,,2014-09-17 07:22:00,
2014-09-17 00:53:00,77.0,67.0,-100.00,WSW,251,1.0,1.0,72,-99.99,,,-99.99,,2014-09-17 07:53:00,
2014-09-17 01:22:00,76.0,67.0,-100.00,WNW,296,1.0,2.0,74,-99.99,,,-99.99,,2014-09-17 08:22:00,
2014-09-17 01:52:00,76.0,67.0,-100.00,SW,219,1.0,1.0,75,-99.99,,,-99.99,,2014-09-17 08:52:00,
2014-09-17 02:22:00,76.0,69.0,-100.00,NNW,337,1.0,3.0,78,-99.99,,,-99.99,,2014-09-17 09:22:00,
2014-09-17 02:54:00,75.0,68.0,-100.00,SW,235,1.0,2.0,78,-99.99,,,-99.99,,2014-09-17 09:54:00,
2014-09-17 03:23:00,75.0,68.0,-100.00,SW,221,1.0,1.0,79,-99.99,,,-99.99,,2014-09-17 10:23:00,
2014-09-17 03:53:00,74.0,68.0,-100.00,East,79,1.0,1.0,82,-99.99,,,-99.99,,2014-09-17 10:53:00,
2014-09-17 04:23:00,73.0,67.0,-100.00,SW,224,1.0,2.0,81,-99.99,,,-99.99,,2014-09-17 11:23:00,
2014-09-17 04:53:00,74.0,69.0,-100.00,West,274,1.0,1.0,84,-99.99,,,-99.99,,2014-09-17 11:53:00,
2014-09-17 05:22:00,73.0,68.0,-100.00,North,-999,0.0,1.0,85,-99.99,,,-99.99,,2014-09-17 12:22:00,
2014-09-17 05:53:00,73.0,69.0,-100.00,ENE,68,1.0,1.0,86,-99.99,,,-99.99,,2014-09-17 12:53:00,
2014-09-17 06:22:00,72.0,68.0,-100.00,North,353,1.0,1.0,87,-99.99,,,-99.99,,2014-09-17 13:22:00,
2014-09-17 06:53:00,72.0,68.0,-100.00,SW,217,1.0,1.0,87,-99.99,,,-99.99,,2014-09-17 13:53:00,
2014-09-17 07:23:00,73.0,69.0,-100.00,North,2,1.0,1.0,87,-99.99,,,-99.99,,2014-09-17 14:23:00,
2014-09-17 07:52:00,76.0,69.0,-100.00,East,80,1.0,2.0,79,-99.99,,,-99.99,,2014-09-17 14:52:00,
2014-09-17 08:21:00,80.0,70.0,-100.00,North,-999,0.0,1.0,72,-99.99,,,-99.99,,2014-09-17 15:21:00,
2014-09-17 08:34:00,80.0,70.0,-100.00,North,-999,0.0,1.0,72,-99.99,,,-99.99,,2014-09-17 15:34:00,
2014-09-17 08:54:00,82.0,71.0,-100.00,WNW,290,1.0,2.0,69,-99.99,,,-99.99,,2014-09-17 15:54:00,
2014-09-17 09:23:00,84.0,70.0,-100.00,NW,324,1.0,3.0,63,-99.99,,,-99.99,,2014-09-17 16:23:00,
2014-09-17 09:53:00,86.0,70.0,-100.00,SW,233,2.0,5.0,60,-99.99,,,-99.99,,2014-09-17 16:53:00,
2014-09-17 10:03:00,86.0,70.0,-100.00,SW,233,2.0,5.0,60,-99.99,,,-99.99,,2014-09-17 17:03:00,
2014-09-17 10:24:00,89.0,71.0,-100.00,WSW,255,3.0,5.0,56,-99.99,,,-99.99,,2014-09-17 17:24:00,
2014-09-17 10:53:00,89.0,70.0,-100.00,WSW,239,3.0,6.0,54,-99.99,,,-99.99,,2014-09-17 17:53:00,
2014-09-17 11:22:00,90.0,69.0,-100.00,WSW,252,4.0,8.0,50,-99.99,,,-99.99,,2014-09-17 18:22:00,
2014-09-17 11:42:00,90.0,69.0,-100.00,WSW,243,4.0,8.0,50,-99.99,,,-99.99,,2014-09-17 18:42:00,
2014-09-17 11:52:00,91.0,68.0,-100.00,WSW,250,4.0,10.0,47,-99.99,,,-99.99,,2014-09-17 18:52:00,
2014-09-17 12:22:00,91.0,67.0,-100.00,West,260,5.0,11.0,45,-99.99,,,-99.99,,2014-09-17 19:22:00,
2014-09-17 12:52:00,90.0,66.0,-100.00,WSW,255,5.0,13.0,45,-99.99,,,-99.99,,2014-09-17 19:52:00,
2014-09-17 13:02:00,90.0,66.0,-100.00,WSW,255,5.0,13.0,45,-99.99,,,-99.99,,2014-09-17 20:02:00,
2014-09-17 13:22:00,89.0,65.0,-100.00,West,273,6.0,11.0,46,-99.99,,,-99.99,,2014-09-17 20:22:00,
2014-09-17 13:52:00,88.0,68.0,-100.00,West,276,6.0,14.0,51,-99.99,,,-99.99,,2014-09-17 20:52:00,